sensor_id;sensor_type;location;lat;lon;timestamp;pressure;altitude;pressure_sealevel;temperature;humidity
57442;BME280;43284;47.042;15.498;2023-01-16T00:00:55;96433.41;;;3.82;87.51
57442;BME280;43284;47.042;15.498;2023-01-16T00:03:21;96432.53;;;3.83;88.76
57442;BME280;43284;47.042;15.498;2023-01-16T00:05:47;96426.84;;;3.71;90.10
57442;BME280;43284;47.042;15.498;2023-01-16T00:08:13;96423.94;;;3.56;90.30
57442;BME280;43284;47.042;15.498;2023-01-16T00:10:39;96420.88;;;3.69;90.06
57442;BME280;43284;47.042;15.498;2023-01-16T00:13:05;96424.41;;;3.67;89.03
57442;BME280;43284;47.042;15.498;2023-01-16T00:15:31;96420.03;;;3.69;88.27
57442;BME280;43284;47.042;15.498;2023-01-16T00:17:57;96419.25;;;3.67;88.74
57442;BME280;43284;47.042;15.498;2023-01-16T00:20:23;96413.00;;;3.74;88.79
57442;BME280;43284;47.042;15.498;2023-01-16T00:22:49;96415.66;;;3.71;88.89
57442;BME280;43284;47.042;15.498;2023-01-16T00:25:15;96403.91;;;3.62;89.26
57442;BME280;43284;47.042;15.498;2023-01-16T00:27:40;96410.97;;;3.57;89.57
57442;BME280;43284;47.042;15.498;2023-01-16T00:30:07;96402.56;;;3.50;89.96
57442;BME280;43284;47.042;15.498;2023-01-16T00:32:32;96405.25;;;3.47;90.31
57442;BME280;43284;47.042;15.498;2023-01-16T00:34:58;96399.28;;;3.45;90.42
57442;BME280;43284;47.042;15.498;2023-01-16T00:37:24;96409.69;;;3.44;90.34
57442;BME280;43284;47.042;15.498;2023-01-16T00:39:50;96409.69;;;3.44;90.12
57442;BME280;43284;47.042;15.498;2023-01-16T00:42:18;96399.44;;;3.41;90.99
57442;BME280;43284;47.042;15.498;2023-01-16T00:44:44;96407.25;;;3.39;91.24
57442;BME280;43284;47.042;15.498;2023-01-16T00:47:10;96401.22;;;3.39;90.60
57442;BME280;43284;47.042;15.498;2023-01-16T00:49:35;96400.34;;;3.40;90.73
57442;BME280;43284;47.042;15.498;2023-01-16T00:52:02;96408.94;;;3.40;90.45
57442;BME280;43284;47.042;15.498;2023-01-16T00:54:28;96414.09;;;3.40;90.42
57442;BME280;43284;47.042;15.498;2023-01-16T00:56:53;96408.09;;;3.40;90.93
57442;BME280;43284;47.042;15.498;2023-01-16T00:59:19;96411.66;;;3.36;90.47
57442;BME280;43284;47.042;15.498;2023-01-16T01:01:44;96416.81;;;3.36;90.82
57442;BME280;43284;47.042;15.498;2023-01-16T01:04:10;96415.09;;;3.36;90.63
57442;BME280;43284;47.042;15.498;2023-01-16T01:06:38;96409.91;;;3.36;90.45
57442;BME280;43284;47.042;15.498;2023-01-16T01:09:04;96409.03;;;3.37;90.45
57442;BME280;43284;47.042;15.498;2023-01-16T01:11:30;96405.59;;;3.37;90.56
57442;BME280;43284;47.042;15.498;2023-01-16T01:13:56;96411.63;;;3.37;90.95
57442;BME280;43284;47.042;15.498;2023-01-16T01:16:21;96412.50;;;3.36;90.87
57442;BME280;43284;47.042;15.498;2023-01-16T01:18:47;96410.06;;;3.32;90.84
57442;BME280;43284;47.042;15.498;2023-01-16T01:21:13;96405.69;;;3.34;90.80
57442;BME280;43284;47.042;15.498;2023-01-16T01:23:38;96405.75;;;3.32;90.59
57442;BME280;43284;47.042;15.498;2023-01-16T01:26:09;96404.03;;;3.33;90.91
57442;BME280;43284;47.042;15.498;2023-01-16T01:28:36;96403.16;;;3.32;91.15
57442;BME280;43284;47.042;15.498;2023-01-16T01:31:07;96409.22;;;3.31;91.07
57442;BME280;43284;47.042;15.498;2023-01-16T01:33:33;96401.59;;;3.28;91.19
57442;BME280;43284;47.042;15.498;2023-01-16T01:35:59;96391.31;;;3.26;92.33
57442;BME280;43284;47.042;15.498;2023-01-16T01:38:24;96391.38;;;3.23;92.90
57442;BME280;43284;47.042;15.498;2023-01-16T01:40:50;96389.75;;;3.21;93.38
57442;BME280;43284;47.042;15.498;2023-01-16T01:43:16;96381.19;;;3.19;94.27
57442;BME280;43284;47.042;15.498;2023-01-16T01:45:52;96382.06;;;3.19;94.17
57442;BME280;43284;47.042;15.498;2023-01-16T01:48:23;96375.38;;;3.12;94.13
57442;BME280;43284;47.042;15.498;2023-01-16T01:51:06;96364.22;;;3.12;94.69
57442;BME280;43284;47.042;15.498;2023-01-16T01:53:37;96367.66;;;3.12;95.08
57442;BME280;43284;47.042;15.498;2023-01-16T01:56:23;96359.03;;;3.13;95.07
57442;BME280;43284;47.042;15.498;2023-01-16T01:58:54;96359.91;;;3.12;95.02
57442;BME280;43284;47.042;15.498;2023-01-16T02:01:21;96360.81;;;3.11;95.56
57442;BME280;43284;47.042;15.498;2023-01-16T02:03:59;96358.31;;;3.08;95.38
57442;BME280;43284;47.042;15.498;2023-01-16T02:06:30;96366.06;;;3.08;95.41
57442;BME280;43284;47.042;15.498;2023-01-16T02:08:57;96360.16;;;3.04;95.24
57442;BME280;43284;47.042;15.498;2023-01-16T02:11:29;96356.78;;;3.02;96.15
57442;BME280;43284;47.042;15.498;2023-01-16T02:14:00;96341.44;;;2.98;95.75
57442;BME280;43284;47.042;15.498;2023-01-16T02:16:27;96343.16;;;2.97;96.00
57442;BME280;43284;47.042;15.498;2023-01-16T02:19:20;96340.69;;;2.94;96.21
57442;BME280;43284;47.042;15.498;2023-01-16T02:27:03;96340.94;;;2.86;96.17
57442;BME280;43284;47.042;15.498;2023-01-16T02:48:49;96317.56;;;2.35;94.56
57442;BME280;43284;47.042;15.498;2023-01-16T02:51:55;96320.28;;;2.30;94.35
57442;BME280;43284;47.042;15.498;2023-01-16T02:57:19;96311.00;;;2.23;94.71
57442;BME280;43284;47.042;15.498;2023-01-16T02:59:47;96312.84;;;2.19;95.08
57442;BME280;43284;47.042;15.498;2023-01-16T03:02:14;96322.50;;;2.13;94.78
57442;BME280;43284;47.042;15.498;2023-01-16T03:04:48;96314.97;;;2.05;94.67
57442;BME280;43284;47.042;15.498;2023-01-16T03:10:11;96308.47;;;1.92;95.11
57442;BME280;43284;47.042;15.498;2023-01-16T03:13:04;96312.91;;;1.88;95.15
57442;BME280;43284;47.042;15.498;2023-01-16T03:22:12;96306.34;;;1.76;95.07
57442;BME280;43284;47.042;15.498;2023-01-16T03:27:16;96293.59;;;1.72;95.64
57442;BME280;43284;47.042;15.498;2023-01-16T03:29:59;96297.28;;;1.61;95.39
57442;BME280;43284;47.042;15.498;2023-01-16T03:33:01;96289.56;;;1.61;95.75
57442;BME280;43284;47.042;15.498;2023-01-16T03:35:29;96298.22;;;1.59;95.73
57442;BME280;43284;47.042;15.498;2023-01-16T03:38:05;96301.69;;;1.58;96.18
57442;BME280;43284;47.042;15.498;2023-01-16T03:40:35;96299.16;;;1.56;96.04
57442;BME280;43284;47.042;15.498;2023-01-16T03:43:11;96286.38;;;1.53;96.30
57442;BME280;43284;47.042;15.498;2023-01-16T03:45:43;96276.09;;;1.52;96.36
57442;BME280;43284;47.042;15.498;2023-01-16T03:48:20;96282.03;;;1.55;96.96
57442;BME280;43284;47.042;15.498;2023-01-16T03:50:52;96273.53;;;1.52;97.03
57442;BME280;43284;47.042;15.498;2023-01-16T03:53:21;96277.91;;;1.48;96.68
57442;BME280;43284;47.042;15.498;2023-01-16T03:56:06;96277.06;;;1.48;97.18
57442;BME280;43284;47.042;15.498;2023-01-16T03:58:37;96277.97;;;1.47;97.13
57442;BME280;43284;47.042;15.498;2023-01-16T04:01:23;96269.44;;;1.44;96.88
57442;BME280;43284;47.042;15.498;2023-01-16T04:06:51;96268.69;;;1.39;96.73
57442;BME280;43284;47.042;15.498;2023-01-16T04:09:47;96274.31;;;1.22;94.92
57442;BME280;43284;47.042;15.498;2023-01-16T04:12:11;96284.09;;;1.08;93.86
57442;BME280;43284;47.042;15.498;2023-01-16T04:14:41;96281.00;;;0.95;93.65
57442;BME280;43284;47.042;15.498;2023-01-16T04:17:09;96277.00;;;0.84;94.37
57442;BME280;43284;47.042;15.498;2023-01-16T04:19:34;96275.72;;;0.66;94.73
57442;BME280;43284;47.042;15.498;2023-01-16T04:22:06;96264.47;;;0.70;96.24
57442;BME280;43284;47.042;15.498;2023-01-16T04:24:33;96268.19;;;0.58;95.75
57442;BME280;43284;47.042;15.498;2023-01-16T04:26:59;96267.47;;;0.53;96.05
57442;BME280;43284;47.042;15.498;2023-01-16T04:29:25;96270.03;;;0.53;95.99
57442;BME280;43284;47.042;15.498;2023-01-16T04:31:51;96264.94;;;0.50;96.29
57442;BME280;43284;47.042;15.498;2023-01-16T04:34:17;96274.47;;;0.46;96.49
57442;BME280;43284;47.042;15.498;2023-01-16T04:36:42;96269.69;;;0.29;96.58
57442;BME280;43284;47.042;15.498;2023-01-16T04:39:08;96270.66;;;0.24;96.80
57442;BME280;43284;47.042;15.498;2023-01-16T04:41:34;96270.50;;;0.31;97.39
57442;BME280;43284;47.042;15.498;2023-01-16T04:44:04;96266.88;;;0.40;97.24
57442;BME280;43284;47.042;15.498;2023-01-16T04:46:30;96257.34;;;0.44;96.79
57442;BME280;43284;47.042;15.498;2023-01-16T04:48:55;96253.56;;;0.24;97.18
57442;BME280;43284;47.042;15.498;2023-01-16T04:51:21;96256.16;;;0.21;97.46
57442;BME280;43284;47.042;15.498;2023-01-16T04:53:47;96245.03;;;0.22;97.74
57442;BME280;43284;47.042;15.498;2023-01-16T04:56:13;96246.69;;;0.23;98.11
57442;BME280;43284;47.042;15.498;2023-01-16T04:58:38;96252.03;;;0.15;98.17
57442;BME280;43284;47.042;15.498;2023-01-16T05:01:04;96239.38;;;0.06;98.43
57442;BME280;43284;47.042;15.498;2023-01-16T05:03:30;96232.56;;;0.05;99.07
57442;BME280;43284;47.042;15.498;2023-01-16T05:05:56;96230.00;;;0.04;99.45
57442;BME280;43284;47.042;15.498;2023-01-16T05:08:21;96221.47;;;0.02;99.61
57442;BME280;43284;47.042;15.498;2023-01-16T05:10:51;96223.09;;;0.07;100.00
57442;BME280;43284;47.042;15.498;2023-01-16T05:13:16;96228.16;;;0.09;100.00
57442;BME280;43284;47.042;15.498;2023-01-16T05:15:43;96213.53;;;0.12;100.00
57442;BME280;43284;47.042;15.498;2023-01-16T05:18:10;96205.81;;;0.12;100.00
57442;BME280;43284;47.042;15.498;2023-01-16T05:20:37;96190.38;;;0.14;100.00
57442;BME280;43284;47.042;15.498;2023-01-16T05:23:03;96171.50;;;0.15;100.00
57442;BME280;43284;47.042;15.498;2023-01-16T05:25:29;96167.25;;;0.14;100.00
57442;BME280;43284;47.042;15.498;2023-01-16T05:27:55;96170.69;;;0.13;100.00
57442;BME280;43284;47.042;15.498;2023-01-16T05:30:21;96175.88;;;0.11;100.00
57442;BME280;43284;47.042;15.498;2023-01-16T05:32:47;96170.69;;;0.13;100.00
57442;BME280;43284;47.042;15.498;2023-01-16T05:35:13;96173.22;;;0.14;100.00
57442;BME280;43284;47.042;15.498;2023-01-16T05:37:39;96185.28;;;0.12;100.00
57442;BME280;43284;47.042;15.498;2023-01-16T05:40:05;96186.97;;;0.13;100.00
57442;BME280;43284;47.042;15.498;2023-01-16T05:42:31;96187.84;;;0.12;100.00
57442;BME280;43284;47.042;15.498;2023-01-16T05:44:56;96181.13;;;0.07;99.43
57442;BME280;43284;47.042;15.498;2023-01-16T05:47:22;96180.16;;;0.11;100.00
57442;BME280;43284;47.042;15.498;2023-01-16T05:49:48;96187.03;;;0.10;100.00
57442;BME280;43284;47.042;15.498;2023-01-16T05:52:14;96180.28;;;0.06;99.80
57442;BME280;43284;47.042;15.498;2023-01-16T05:54:40;96183.72;;;0.05;99.95
57442;BME280;43284;47.042;15.498;2023-01-16T05:57:05;96182.84;;;0.06;100.00
57442;BME280;43284;47.042;15.498;2023-01-16T05:59:31;96172.50;;;0.09;100.00
57442;BME280;43284;47.042;15.498;2023-01-16T06:01:57;96171.66;;;0.09;100.00
57442;BME280;43284;47.042;15.498;2023-01-16T06:04:23;96171.75;;;0.04;100.00
57442;BME280;43284;47.042;15.498;2023-01-16T06:06:50;96168.28;;;0.07;100.00
57442;BME280;43284;47.042;15.498;2023-01-16T06:09:15;96177.69;;;0.06;100.00
57442;BME280;43284;47.042;15.498;2023-01-16T06:11:41;96169.97;;;0.08;100.00
57442;BME280;43284;47.042;15.498;2023-01-16T06:14:07;96158.78;;;0.09;100.00
57442;BME280;43284;47.042;15.498;2023-01-16T06:16:33;96138.19;;;0.12;100.00
57442;BME280;43284;47.042;15.498;2023-01-16T06:19:00;96126.97;;;0.14;100.00
57442;BME280;43284;47.042;15.498;2023-01-16T06:21:26;96125.34;;;0.12;100.00
57442;BME280;43284;47.042;15.498;2023-01-16T06:23:52;96127.97;;;0.09;100.00
57442;BME280;43284;47.042;15.498;2023-01-16T06:26:18;96107.41;;;0.09;100.00
57442;BME280;43284;47.042;15.498;2023-01-16T06:28:45;96091.09;;;0.11;100.00
57442;BME280;43284;47.042;15.498;2023-01-16T06:31:12;96093.66;;;0.11;100.00
57442;BME280;43284;47.042;15.498;2023-01-16T06:33:37;96103.09;;;0.11;100.00
57442;BME280;43284;47.042;15.498;2023-01-16T06:36:03;96110.16;;;0.03;100.00
57442;BME280;43284;47.042;15.498;2023-01-16T06:38:29;96106.81;;;-0.01;100.00
57442;BME280;43284;47.042;15.498;2023-01-16T06:40:55;96086.97;;;0.04;100.00
57442;BME280;43284;47.042;15.498;2023-01-16T06:43:30;96080.97;;;0.05;100.00
57442;BME280;43284;47.042;15.498;2023-01-16T06:45:56;96062.09;;;0.06;100.00
57442;BME280;43284;47.042;15.498;2023-01-16T06:48:22;96058.59;;;0.09;100.00
57442;BME280;43284;47.042;15.498;2023-01-16T06:50:48;96045.72;;;0.10;100.00
57442;BME280;43284;47.042;15.498;2023-01-16T06:53:14;96032.00;;;0.11;100.00
57442;BME280;43284;47.042;15.498;2023-01-16T06:55:41;96046.56;;;0.11;100.00
57442;BME280;43284;47.042;15.498;2023-01-16T06:58:08;96050.97;;;0.06;100.00
57442;BME280;43284;47.042;15.498;2023-01-16T07:00:34;96058.69;;;0.06;100.00
57442;BME280;43284;47.042;15.498;2023-01-16T07:03:00;96050.16;;;0.04;100.00
57442;BME280;43284;47.042;15.498;2023-01-16T07:05:27;96051.81;;;0.06;100.00
57442;BME280;43284;47.042;15.498;2023-01-16T07:07:54;96039.66;;;0.13;100.00
57442;BME280;43284;47.042;15.498;2023-01-16T07:10:20;96023.44;;;0.11;100.00
57442;BME280;43284;47.042;15.498;2023-01-16T07:12:47;96025.09;;;0.13;100.00
57442;BME280;43284;47.042;15.498;2023-01-16T07:15:13;96016.53;;;0.13;100.00
57442;BME280;43284;47.042;15.498;2023-01-16T07:17:57;95995.13;;;0.12;100.00
57442;BME280;43284;47.042;15.498;2023-01-16T07:20:42;95984.81;;;0.14;100.00
57442;BME280;43284;47.042;15.498;2023-01-16T07:23:33;95986.59;;;0.12;100.00
57442;BME280;43284;47.042;15.498;2023-01-16T07:26:02;95989.16;;;0.12;100.00
57442;BME280;43284;47.042;15.498;2023-01-16T07:28:30;95998.63;;;0.10;100.00
57442;BME280;43284;47.042;15.498;2023-01-16T07:30:56;95991.03;;;0.07;100.00
57442;BME280;43284;47.042;15.498;2023-01-16T07:33:23;95979.84;;;0.08;100.00
57442;BME280;43284;47.042;15.498;2023-01-16T07:35:49;95983.19;;;0.11;100.00
57442;BME280;43284;47.042;15.498;2023-01-16T07:38:15;95994.47;;;0.06;100.00
57442;BME280;43284;47.042;15.498;2023-01-16T07:40:41;95991.91;;;0.04;100.00
57442;BME280;43284;47.042;15.498;2023-01-16T07:43:07;95997.88;;;0.06;100.00
57442;BME280;43284;47.042;15.498;2023-01-16T07:45:33;95989.34;;;0.04;100.00
57442;BME280;43284;47.042;15.498;2023-01-16T07:47:58;95984.03;;;0.12;100.00
57442;BME280;43284;47.042;15.498;2023-01-16T07:50:26;95972.09;;;0.09;100.00
57442;BME280;43284;47.042;15.498;2023-01-16T07:52:52;95961.03;;;0.07;100.00
57442;BME280;43284;47.042;15.498;2023-01-16T07:55:17;95970.53;;;0.04;100.00
57442;BME280;43284;47.042;15.498;2023-01-16T07:57:43;95967.16;;;0.02;100.00
57442;BME280;43284;47.042;15.498;2023-01-16T08:00:10;95961.97;;;0.05;100.00
57442;BME280;43284;47.042;15.498;2023-01-16T08:02:36;95957.56;;;0.08;100.00
57442;BME280;43284;47.042;15.498;2023-01-16T08:05:03;95949.78;;;0.11;100.00
57442;BME280;43284;47.042;15.498;2023-01-16T08:07:28;95939.63;;;0.07;100.00
57442;BME280;43284;47.042;15.498;2023-01-16T08:09:54;95936.94;;;0.11;100.00
57442;BME280;43284;47.042;15.498;2023-01-16T08:12:20;95932.69;;;0.09;100.00
57442;BME280;43284;47.042;15.498;2023-01-16T08:14:45;95925.75;;;0.12;100.00
57442;BME280;43284;47.042;15.498;2023-01-16T08:17:11;95915.59;;;0.09;100.00
57442;BME280;43284;47.042;15.498;2023-01-16T08:19:37;95922.53;;;0.06;100.00
57442;BME280;43284;47.042;15.498;2023-01-16T08:22:03;95913.06;;;0.08;100.00
57442;BME280;43284;47.042;15.498;2023-01-16T08:24:29;95912.13;;;0.10;100.00
57442;BME280;43284;47.042;15.498;2023-01-16T08:26:55;95908.59;;;0.14;100.00
57442;BME280;43284;47.042;15.498;2023-01-16T08:29:22;95896.56;;;0.15;100.00
57442;BME280;43284;47.042;15.498;2023-01-16T08:31:48;95883.03;;;0.10;100.00
57442;BME280;43284;47.042;15.498;2023-01-16T08:34:14;95879.56;;;0.11;100.00
57442;BME280;43284;47.042;15.498;2023-01-16T08:36:39;95868.31;;;0.15;100.00
57442;BME280;43284;47.042;15.498;2023-01-16T08:39:09;95862.47;;;0.10;100.00
57442;BME280;43284;47.042;15.498;2023-01-16T08:41:35;95856.38;;;0.14;100.00
57442;BME280;43284;47.042;15.498;2023-01-16T08:44:19;95852.75;;;0.19;100.00
57442;BME280;43284;47.042;15.498;2023-01-16T08:47:09;95845.00;;;0.21;100.00
57442;BME280;43284;47.042;15.498;2023-01-16T08:49:53;95841.50;;;0.24;100.00
57442;BME280;43284;47.042;15.498;2023-01-16T08:52:38;95832.13;;;0.23;100.00
57442;BME280;43284;47.042;15.498;2023-01-16T08:55:05;95838.13;;;0.22;100.00
57442;BME280;43284;47.042;15.498;2023-01-16T08:57:31;95830.56;;;0.17;100.00
57442;BME280;43284;47.042;15.498;2023-01-16T08:59:57;95833.22;;;0.14;100.00
57442;BME280;43284;47.042;15.498;2023-01-16T09:02:26;95836.59;;;0.16;100.00
57442;BME280;43284;47.042;15.498;2023-01-16T09:04:53;95833.97;;;0.17;100.00
57442;BME280;43284;47.042;15.498;2023-01-16T09:07:20;95828.66;;;0.24;100.00
57442;BME280;43284;47.042;15.498;2023-01-16T09:09:46;95832.03;;;0.26;100.00
57442;BME280;43284;47.042;15.498;2023-01-16T09:12:12;95825.13;;;0.28;100.00
57442;BME280;43284;47.042;15.498;2023-01-16T09:14:57;95827.81;;;0.23;100.00
57442;BME280;43284;47.042;15.498;2023-01-16T09:17:25;95829.41;;;0.27;100.00
57442;BME280;43284;47.042;15.498;2023-01-16T09:19:51;95822.50;;;0.29;100.00
57442;BME280;43284;47.042;15.498;2023-01-16T09:22:17;95818.19;;;0.30;100.00
57442;BME280;43284;47.042;15.498;2023-01-16T09:24:44;95816.44;;;0.32;100.00
57442;BME280;43284;47.042;15.498;2023-01-16T09:27:10;95803.44;;;0.36;100.00
57442;BME280;43284;47.042;15.498;2023-01-16T09:29:38;95801.78;;;0.35;100.00
57442;BME280;43284;47.042;15.498;2023-01-16T09:32:05;95795.72;;;0.36;100.00
57442;BME280;43284;47.042;15.498;2023-01-16T09:34:37;95790.44;;;0.41;100.00
57442;BME280;43284;47.042;15.498;2023-01-16T09:37:04;95780.22;;;0.39;100.00
57442;BME280;43284;47.042;15.498;2023-01-16T09:39:31;95780.22;;;0.39;100.00
57442;BME280;43284;47.042;15.498;2023-01-16T09:45:14;95763.78;;;0.44;100.00
57442;BME280;43284;47.042;15.498;2023-01-16T09:47:44;95764.59;;;0.46;100.00
57442;BME280;43284;47.042;15.498;2023-01-16T09:50:19;95761.16;;;0.47;100.00
57442;BME280;43284;47.042;15.498;2023-01-16T09:52:48;95754.22;;;0.49;100.00
57442;BME280;43284;47.042;15.498;2023-01-16T09:55:47;95745.69;;;0.48;100.00
57442;BME280;43284;47.042;15.498;2023-01-16T09:58:32;95747.34;;;0.49;100.00
57442;BME280;43284;47.042;15.498;2023-01-16T10:03:38;95735.97;;;0.56;100.00
57442;BME280;43284;47.042;15.498;2023-01-16T10:08:49;95713.75;;;0.55;100.00
57442;BME280;43284;47.042;15.498;2023-01-16T10:11:24;95703.34;;;0.58;100.00
57442;BME280;43284;47.042;15.498;2023-01-16T10:22:27;95682.88;;;0.55;100.00
57442;BME280;43284;47.042;15.498;2023-01-16T10:25:11;95675.97;;;0.57;100.00
57442;BME280;43284;47.042;15.498;2023-01-16T10:31:08;95661.06;;;0.67;100.00
57442;BME280;43284;47.042;15.498;2023-01-16T10:33:44;95650.78;;;0.67;100.00
57442;BME280;43284;47.042;15.498;2023-01-16T10:36:14;95638.63;;;0.72;100.00
57442;BME280;43284;47.042;15.498;2023-01-16T10:38:47;95635.13;;;0.73;100.00
57442;BME280;43284;47.042;15.498;2023-01-16T10:41:20;95629.25;;;0.70;100.00
57442;BME280;43284;47.042;15.498;2023-01-16T10:44:23;95625.06;;;0.67;98.73
57442;BME280;43284;47.042;15.498;2023-01-16T10:47:11;95605.31;;;0.68;98.79
57442;BME280;43284;47.042;15.498;2023-01-16T10:49:56;95592.38;;;0.71;99.72
57442;BME280;43284;47.042;15.498;2023-01-16T10:52:22;95591.53;;;0.70;99.63
57442;BME280;43284;47.042;15.498;2023-01-16T10:54:51;95588.81;;;0.75;99.80
57442;BME280;43284;47.042;15.498;2023-01-16T10:57:20;95587.06;;;0.75;99.68
57442;BME280;43284;47.042;15.498;2023-01-16T10:59:46;95579.38;;;0.74;98.96
57442;BME280;43284;47.042;15.498;2023-01-16T11:02:38;95562.13;;;0.77;99.38
57442;BME280;43284;47.042;15.498;2023-01-16T11:05:32;95554.38;;;0.79;99.68
57442;BME280;43284;47.042;15.498;2023-01-16T11:08:18;95559.50;;;0.79;99.77
57442;BME280;43284;47.042;15.498;2023-01-16T11:10:49;95548.19;;;0.83;99.90
57442;BME280;43284;47.042;15.498;2023-01-16T11:13:20;95537.81;;;0.86;99.92
57442;BME280;43284;47.042;15.498;2023-01-16T11:16:19;95528.13;;;0.93;100.00
57442;BME280;43284;47.042;15.498;2023-01-16T11:19:22;95511.78;;;0.94;99.83
57442;BME280;43284;47.042;15.498;2023-01-16T11:21:55;95509.13;;;0.97;100.00
57442;BME280;43284;47.042;15.498;2023-01-16T11:24:31;95511.66;;;0.98;99.70
57442;BME280;43284;47.042;15.498;2023-01-16T11:26:58;95511.75;;;0.95;99.37
57442;BME280;43284;47.042;15.498;2023-01-16T11:29:26;95505.63;;;0.98;99.42
57442;BME280;43284;47.042;15.498;2023-01-16T11:32:03;95491.06;;;0.98;99.30
57442;BME280;43284;47.042;15.498;2023-01-16T11:34:29;95481.88;;;0.91;98.48
57442;BME280;43284;47.042;15.498;2023-01-16T11:36:57;95478.59;;;0.88;98.49
57442;BME280;43284;47.042;15.498;2023-01-16T11:39:26;95473.16;;;0.95;98.73
57442;BME280;43284;47.042;15.498;2023-01-16T11:41:56;95472.19;;;0.98;99.12
57442;BME280;43284;47.042;15.498;2023-01-16T11:44:32;95465.25;;;1.00;98.67
57442;BME280;43284;47.042;15.498;2023-01-16T11:47:22;95464.44;;;0.99;98.33
57442;BME280;43284;47.042;15.498;2023-01-16T11:49:52;95455.75;;;1.02;98.40
57442;BME280;43284;47.042;15.498;2023-01-16T11:52:20;95447.38;;;0.97;98.91
57442;BME280;43284;47.042;15.498;2023-01-16T12:00:39;95424.59;;;1.10;99.57
57442;BME280;43284;47.042;15.498;2023-01-16T12:17:17;95399.56;;;1.13;99.50
57442;BME280;43284;47.042;15.498;2023-01-16T12:23:00;95383.81;;;1.21;99.46
57442;BME280;43284;47.042;15.498;2023-01-16T12:45:31;95307.56;;;1.39;99.04
57442;BME280;43284;47.042;15.498;2023-01-16T12:56:13;95293.03;;;1.38;96.92
57442;BME280;43284;47.042;15.498;2023-01-16T12:58:47;95287.81;;;1.39;97.13
57442;BME280;43284;47.042;15.498;2023-01-16T13:01:24;95279.81;;;1.46;97.40
57442;BME280;43284;47.042;15.498;2023-01-16T13:06:40;95278.28;;;1.62;97.45
57442;BME280;43284;47.042;15.498;2023-01-16T13:09:18;95272.34;;;1.60;96.42
57442;BME280;43284;47.042;15.498;2023-01-16T13:12:18;95268.66;;;1.65;96.28
57442;BME280;43284;47.042;15.498;2023-01-16T13:15:10;95262.41;;;1.71;96.78
57442;BME280;43284;47.042;15.498;2023-01-16T13:20:25;95248.41;;;1.77;96.73
57442;BME280;43284;47.042;15.498;2023-01-16T13:23:08;95252.66;;;1.78;96.48
57442;BME280;43284;47.042;15.498;2023-01-16T13:25:42;95235.53;;;1.77;95.48
57442;BME280;43284;47.042;15.498;2023-01-16T13:28:25;95219.81;;;1.83;95.83
57442;BME280;43284;47.042;15.498;2023-01-16T13:30:58;95216.13;;;1.89;95.90
57442;BME280;43284;47.042;15.498;2023-01-16T13:33:29;95211.72;;;1.91;95.30
57442;BME280;43284;47.042;15.498;2023-01-16T13:41:59;95200.38;;;1.76;93.42
57442;BME280;43284;47.042;15.498;2023-01-16T13:44:38;95194.03;;;1.83;94.49
57442;BME280;43284;47.042;15.498;2023-01-16T13:47:27;95185.13;;;1.90;94.00
57442;BME280;43284;47.042;15.498;2023-01-16T13:50:06;95179.00;;;1.93;94.24
57442;BME280;43284;47.042;15.498;2023-01-16T13:52:33;95187.84;;;1.87;93.33
57442;BME280;43284;47.042;15.498;2023-01-16T13:55:01;95185.97;;;1.91;94.15
57442;BME280;43284;47.042;15.498;2023-01-16T13:57:28;95182.34;;;1.95;93.97
57442;BME280;43284;47.042;15.498;2023-01-16T14:00:01;95164.78;;;2.03;94.95
57442;BME280;43284;47.042;15.498;2023-01-16T14:05:28;95150.25;;;2.19;94.58
57442;BME280;43284;47.042;15.498;2023-01-16T14:11:14;95128.19;;;2.31;93.03
57442;BME280;43284;47.042;15.498;2023-01-16T14:13:40;95118.59;;;2.35;93.54
57442;BME280;43284;47.042;15.498;2023-01-16T14:21:38;95134.84;;;2.00;93.20
57442;BME280;43284;47.042;15.498;2023-01-16T14:24:15;95139.59;;;1.91;94.00
57442;BME280;43284;47.042;15.498;2023-01-16T14:26:58;95125.47;;;1.80;94.00
57442;BME280;43284;47.042;15.498;2023-01-16T14:29:30;95119.72;;;1.75;93.83
57442;BME280;43284;47.042;15.498;2023-01-16T14:37:24;95106.19;;;1.70;95.75
57442;BME280;43284;47.042;15.498;2023-01-16T14:40:00;95104.72;;;1.47;95.61
57442;BME280;43284;47.042;15.498;2023-01-16T14:42:31;95102.19;;;1.46;95.58
57442;BME280;43284;47.042;15.498;2023-01-16T14:45:26;95102.91;;;1.49;96.20
57442;BME280;43284;47.042;15.498;2023-01-16T14:48:12;95098.91;;;1.42;96.40
57442;BME280;43284;47.042;15.498;2023-01-16T14:53:57;95103.94;;;1.26;95.90
57442;BME280;43284;47.042;15.498;2023-01-16T14:56:43;95108.31;;;1.05;95.92
57442;BME280;43284;47.042;15.498;2023-01-16T14:59:16;95104.69;;;1.09;96.37
57442;BME280;43284;47.042;15.498;2023-01-16T15:01:49;95095.53;;;1.03;96.39
57442;BME280;43284;47.042;15.498;2023-01-16T15:04:45;95099.06;;;1.01;96.86
57442;BME280;43284;47.042;15.498;2023-01-16T15:07:16;95096.03;;;0.91;96.09
57442;BME280;43284;47.042;15.498;2023-01-16T15:09:43;95105.97;;;0.80;96.32
57442;BME280;43284;47.042;15.498;2023-01-16T15:12:14;95106.59;;;0.85;96.75
57442;BME280;43284;47.042;15.498;2023-01-16T15:14:56;95097.16;;;0.86;96.89
57442;BME280;43284;47.042;15.498;2023-01-16T15:17:35;95084.16;;;0.89;96.59
57442;BME280;43284;47.042;15.498;2023-01-16T15:20:25;95086.22;;;0.80;96.59
57442;BME280;43284;47.042;15.498;2023-01-16T15:23:20;95084.00;;;0.92;97.71
57442;BME280;43284;47.042;15.498;2023-01-16T15:25:50;95076.31;;;0.92;97.54
57442;BME280;43284;47.042;15.498;2023-01-16T15:31:28;95078.13;;;0.90;98.04
57442;BME280;43284;47.042;15.498;2023-01-16T15:36:40;95074.69;;;0.89;97.67
57442;BME280;43284;47.042;15.498;2023-01-16T15:41:48;95067.59;;;0.75;96.70
57442;BME280;43284;47.042;15.498;2023-01-16T15:44:37;95064.22;;;0.75;96.99
57442;BME280;43284;47.042;15.498;2023-01-16T15:47:48;95073.06;;;0.68;97.10
57442;BME280;43284;47.042;15.498;2023-01-16T15:53:16;95059.88;;;0.75;95.45